sensor_id;sensor_type;location;lat;lon;timestamp;P1;P2;P0
78678;PMS5003;67994;59.334;13.528;2023-02-23T00:00:00;3.4;3.1;
78678;PMS5003;67994;59.334;13.528;2023-02-23T00:01:00;3.4;3.1;
78678;PMS5003;67994;59.334;13.528;2023-02-23T00:02:00;3.4;3.1;
78678;PMS5003;67994;59.334;13.528;2023-02-23T00:03:00;4.2;4.0;
78678;PMS5003;67994;59.334;13.528;2023-02-23T00:04:00;4.2;4.0;
78678;PMS5003;67994;59.334;13.528;2023-02-23T00:05:00;4.2;4.0;
78678;PMS5003;67994;59.334;13.528;2023-02-23T00:06:01;4.2;4.0;
78678;PMS5003;67994;59.334;13.528;2023-02-23T00:07:00;4.2;4.0;
78678;PMS5003;67994;59.334;13.528;2023-02-23T00:08:00;4.6;4.6;
78678;PMS5003;67994;59.334;13.528;2023-02-23T00:09:00;4.6;4.6;
78678;PMS5003;67994;59.334;13.528;2023-02-23T00:10:00;4.6;4.6;
78678;PMS5003;67994;59.334;13.528;2023-02-23T00:11:00;4.6;4.6;
78678;PMS5003;67994;59.334;13.528;2023-02-23T00:12:00;4.6;4.6;
78678;PMS5003;67994;59.334;13.528;2023-02-23T00:13:00;4.0;4.0;
78678;PMS5003;67994;59.334;13.528;2023-02-23T00:14:00;4.0;4.0;
78678;PMS5003;67994;59.334;13.528;2023-02-23T00:15:00;4.0;4.0;
78678;PMS5003;67994;59.334;13.528;2023-02-23T00:16:02;4.0;4.0;
78678;PMS5003;67994;59.334;13.528;2023-02-23T00:17:00;4.0;4.0;
78678;PMS5003;67994;59.334;13.528;2023-02-23T00:18:00;4.0;3.7;
78678;PMS5003;67994;59.334;13.528;2023-02-23T00:19:00;4.0;3.7;
78678;PMS5003;67994;59.334;13.528;2023-02-23T00:20:00;4.0;3.7;
78678;PMS5003;67994;59.334;13.528;2023-02-23T00:21:00;4.0;3.7;
78678;PMS5003;67994;59.334;13.528;2023-02-23T00:22:00;4.0;3.7;
78678;PMS5003;67994;59.334;13.528;2023-02-23T00:23:00;7.5;3.7;
78678;PMS5003;67994;59.334;13.528;2023-02-23T00:24:00;7.5;3.7;
78678;PMS5003;67994;59.334;13.528;2023-02-23T00:25:00;7.5;3.7;
78678;PMS5003;67994;59.334;13.528;2023-02-23T00:26:02;7.5;3.7;
78678;PMS5003;67994;59.334;13.528;2023-02-23T00:27:00;7.5;3.7;
78678;PMS5003;67994;59.334;13.528;2023-02-23T00:28:00;7.6;4.6;
78678;PMS5003;67994;59.334;13.528;2023-02-23T00:29:00;7.6;4.6;
78678;PMS5003;67994;59.334;13.528;2023-02-23T00:30:00;7.6;4.6;
78678;PMS5003;67994;59.334;13.528;2023-02-23T00:31:00;7.6;4.6;
78678;PMS5003;67994;59.334;13.528;2023-02-23T00:32:00;7.6;4.6;
78678;PMS5003;67994;59.334;13.528;2023-02-23T00:33:00;4.0;4.0;
78678;PMS5003;67994;59.334;13.528;2023-02-23T00:34:01;4.0;4.0;
78678;PMS5003;67994;59.334;13.528;2023-02-23T00:35:00;4.0;4.0;
78678;PMS5003;67994;59.334;13.528;2023-02-23T00:36:04;4.0;4.0;
78678;PMS5003;67994;59.334;13.528;2023-02-23T00:37:00;4.0;4.0;
78678;PMS5003;67994;59.334;13.528;2023-02-23T00:38:00;5.8;5.4;
78678;PMS5003;67994;59.334;13.528;2023-02-23T00:39:01;5.8;5.4;
78678;PMS5003;67994;59.334;13.528;2023-02-23T00:40:00;5.8;5.4;
78678;PMS5003;67994;59.334;13.528;2023-02-23T00:41:03;5.8;5.4;
78678;PMS5003;67994;59.334;13.528;2023-02-23T00:42:00;5.8;5.4;
78678;PMS5003;67994;59.334;13.528;2023-02-23T00:43:00;6.3;4.6;
78678;PMS5003;67994;59.334;13.528;2023-02-23T00:44:00;6.3;4.6;
78678;PMS5003;67994;59.334;13.528;2023-02-23T00:45:00;6.3;4.6;
78678;PMS5003;67994;59.334;13.528;2023-02-23T00:46:00;6.3;4.6;
78678;PMS5003;67994;59.334;13.528;2023-02-23T00:47:00;6.3;4.6;
78678;PMS5003;67994;59.334;13.528;2023-02-23T00:48:00;5.2;3.9;
78678;PMS5003;67994;59.334;13.528;2023-02-23T00:49:00;5.2;3.9;
78678;PMS5003;67994;59.334;13.528;2023-02-23T00:50:00;5.2;3.9;
78678;PMS5003;67994;59.334;13.528;2023-02-23T00:51:00;5.2;3.9;
78678;PMS5003;67994;59.334;13.528;2023-02-23T00:52:00;5.2;3.9;
78678;PMS5003;67994;59.334;13.528;2023-02-23T00:53:00;6.1;4.0;
78678;PMS5003;67994;59.334;13.528;2023-02-23T00:54:00;6.1;4.0;
78678;PMS5003;67994;59.334;13.528;2023-02-23T00:55:00;6.1;4.0;
78678;PMS5003;67994;59.334;13.528;2023-02-23T00:56:00;6.1;4.0;
78678;PMS5003;67994;59.334;13.528;2023-02-23T00:57:00;6.1;4.0;
78678;PMS5003;67994;59.334;13.528;2023-02-23T00:58:00;3.3;2.4;
78678;PMS5003;67994;59.334;13.528;2023-02-23T00:59:00;3.3;2.4;
78678;PMS5003;67994;59.334;13.528;2023-02-23T01:00:00;3.3;2.4;
78678;PMS5003;67994;59.334;13.528;2023-02-23T01:01:00;3.3;2.4;
78678;PMS5003;67994;59.334;13.528;2023-02-23T01:02:00;3.3;2.4;
78678;PMS5003;67994;59.334;13.528;2023-02-23T01:03:00;7.0;6.0;
78678;PMS5003;67994;59.334;13.528;2023-02-23T01:04:00;7.0;6.0;
78678;PMS5003;67994;59.334;13.528;2023-02-23T01:05:00;7.0;6.0;
78678;PMS5003;67994;59.334;13.528;2023-02-23T01:06:00;7.0;6.0;
78678;PMS5003;67994;59.334;13.528;2023-02-23T01:07:00;7.0;6.0;
78678;PMS5003;67994;59.334;13.528;2023-02-23T01:08:00;7.6;5.8;
78678;PMS5003;67994;59.334;13.528;2023-02-23T01:09:00;7.6;5.8;
78678;PMS5003;67994;59.334;13.528;2023-02-23T01:10:00;7.6;5.8;
78678;PMS5003;67994;59.334;13.528;2023-02-23T01:11:04;7.6;5.8;
78678;PMS5003;67994;59.334;13.528;2023-02-23T01:12:00;7.6;5.8;
78678;PMS5003;67994;59.334;13.528;2023-02-23T01:13:00;5.8;5.8;
78678;PMS5003;67994;59.334;13.528;2023-02-23T01:14:00;5.8;5.8;
78678;PMS5003;67994;59.334;13.528;2023-02-23T01:15:00;5.8;5.8;
78678;PMS5003;67994;59.334;13.528;2023-02-23T01:16:02;5.8;5.8;
78678;PMS5003;67994;59.334;13.528;2023-02-23T01:17:00;5.8;5.8;
78678;PMS5003;67994;59.334;13.528;2023-02-23T01:18:00;3.6;3.6;
78678;PMS5003;67994;59.334;13.528;2023-02-23T01:19:01;3.6;3.6;
78678;PMS5003;67994;59.334;13.528;2023-02-23T01:20:00;3.6;3.6;
78678;PMS5003;67994;59.334;13.528;2023-02-23T01:21:00;3.6;3.6;
78678;PMS5003;67994;59.334;13.528;2023-02-23T01:22:00;3.6;3.6;
78678;PMS5003;67994;59.334;13.528;2023-02-23T01:23:00;5.5;5.5;
78678;PMS5003;67994;59.334;13.528;2023-02-23T01:24:00;5.5;5.5;
78678;PMS5003;67994;59.334;13.528;2023-02-23T01:25:00;5.5;5.5;
78678;PMS5003;67994;59.334;13.528;2023-02-23T01:26:00;5.5;5.5;
78678;PMS5003;67994;59.334;13.528;2023-02-23T01:27:00;5.5;5.5;
78678;PMS5003;67994;59.334;13.528;2023-02-23T01:28:00;3.9;3.9;
78678;PMS5003;67994;59.334;13.528;2023-02-23T01:29:02;3.9;3.9;
78678;PMS5003;67994;59.334;13.528;2023-02-23T01:30:00;3.9;3.9;
78678;PMS5003;67994;59.334;13.528;2023-02-23T01:31:00;3.9;3.9;
78678;PMS5003;67994;59.334;13.528;2023-02-23T01:32:00;3.9;3.9;
78678;PMS5003;67994;59.334;13.528;2023-02-23T01:33:00;4.0;3.0;
78678;PMS5003;67994;59.334;13.528;2023-02-23T01:34:00;4.0;3.0;
78678;PMS5003;67994;59.334;13.528;2023-02-23T01:35:00;4.0;3.0;
78678;PMS5003;67994;59.334;13.528;2023-02-23T01:36:00;4.0;3.0;
78678;PMS5003;67994;59.334;13.528;2023-02-23T01:37:00;4.0;3.0;
78678;PMS5003;67994;59.334;13.528;2023-02-23T01:38:00;4.6;4.0;
78678;PMS5003;67994;59.334;13.528;2023-02-23T01:39:00;4.6;4.0;
78678;PMS5003;67994;59.334;13.528;2023-02-23T01:40:00;4.6;4.0;
78678;PMS5003;67994;59.334;13.528;2023-02-23T01:41:00;4.6;4.0;
78678;PMS5003;67994;59.334;13.528;2023-02-23T01:42:00;4.6;4.0;
78678;PMS5003;67994;59.334;13.528;2023-02-23T01:43:08;6.7;4.0;
78678;PMS5003;67994;59.334;13.528;2023-02-23T01:44:01;6.7;4.0;
78678;PMS5003;67994;59.334;13.528;2023-02-23T01:46:00;6.7;4.0;
78678;PMS5003;67994;59.334;13.528;2023-02-23T01:47:00;6.7;4.0;
78678;PMS5003;67994;59.334;13.528;2023-02-23T01:48:02;5.8;3.7;
78678;PMS5003;67994;59.334;13.528;2023-02-23T01:49:00;5.8;3.7;
78678;PMS5003;67994;59.334;13.528;2023-02-23T01:50:00;5.8;3.7;
78678;PMS5003;67994;59.334;13.528;2023-02-23T01:51:01;5.8;3.7;
78678;PMS5003;67994;59.334;13.528;2023-02-23T01:52:01;5.8;3.7;
78678;PMS5003;67994;59.334;13.528;2023-02-23T01:53:00;7.0;5.2;
78678;PMS5003;67994;59.334;13.528;2023-02-23T01:54:01;7.0;5.2;
78678;PMS5003;67994;59.334;13.528;2023-02-23T01:55:00;7.0;5.2;
78678;PMS5003;67994;59.334;13.528;2023-02-23T01:56:02;7.0;5.2;
78678;PMS5003;67994;59.334;13.528;2023-02-23T01:57:00;7.0;5.2;
78678;PMS5003;67994;59.334;13.528;2023-02-23T01:58:03;4.0;3.7;
78678;PMS5003;67994;59.334;13.528;2023-02-23T01:59:02;4.0;3.7;
78678;PMS5003;67994;59.334;13.528;2023-02-23T02:00:00;4.0;3.7;
78678;PMS5003;67994;59.334;13.528;2023-02-23T02:01:00;4.0;3.7;
78678;PMS5003;67994;59.334;13.528;2023-02-23T02:02:00;4.0;3.7;
78678;PMS5003;67994;59.334;13.528;2023-02-23T02:03:00;5.8;4.0;
78678;PMS5003;67994;59.334;13.528;2023-02-23T02:04:00;5.8;4.0;
78678;PMS5003;67994;59.334;13.528;2023-02-23T02:05:00;5.8;4.0;
78678;PMS5003;67994;59.334;13.528;2023-02-23T02:06:01;5.8;4.0;
78678;PMS5003;67994;59.334;13.528;2023-02-23T02:07:00;5.8;4.0;
78678;PMS5003;67994;59.334;13.528;2023-02-23T02:08:00;3.0;3.0;
78678;PMS5003;67994;59.334;13.528;2023-02-23T02:09:00;3.0;3.0;
78678;PMS5003;67994;59.334;13.528;2023-02-23T02:10:00;3.0;3.0;
78678;PMS5003;67994;59.334;13.528;2023-02-23T02:11:00;3.0;3.0;
78678;PMS5003;67994;59.334;13.528;2023-02-23T02:12:00;3.0;3.0;
78678;PMS5003;67994;59.334;13.528;2023-02-23T02:13:00;5.1;3.6;
78678;PMS5003;67994;59.334;13.528;2023-02-23T02:14:00;5.1;3.6;
78678;PMS5003;67994;59.334;13.528;2023-02-23T02:15:00;5.1;3.6;
78678;PMS5003;67994;59.334;13.528;2023-02-23T02:17:04;5.1;3.6;
78678;PMS5003;67994;59.334;13.528;2023-02-23T02:18:02;6.9;3.7;
78678;PMS5003;67994;59.334;13.528;2023-02-23T02:19:05;6.9;3.7;
78678;PMS5003;67994;59.334;13.528;2023-02-23T02:21:07;6.9;3.7;
78678;PMS5003;67994;59.334;13.528;2023-02-23T02:22:05;6.9;3.7;
78678;PMS5003;67994;59.334;13.528;2023-02-23T02:23:08;4.8;4.0;
78678;PMS5003;67994;59.334;13.528;2023-02-23T02:25:06;4.8;4.0;
78678;PMS5003;67994;59.334;13.528;2023-02-23T02:26:02;4.8;4.0;
78678;PMS5003;67994;59.334;13.528;2023-02-23T02:27:01;4.8;4.0;
78678;PMS5003;67994;59.334;13.528;2023-02-23T02:28:07;3.1;3.1;
78678;PMS5003;67994;59.334;13.528;2023-02-23T02:29:09;3.1;3.1;
78678;PMS5003;67994;59.334;13.528;2023-02-23T02:31:10;3.1;3.1;
78678;PMS5003;67994;59.334;13.528;2023-02-23T02:33:05;11.4;4.8;
78678;PMS5003;67994;59.334;13.528;2023-02-23T02:34:06;11.4;4.8;
78678;PMS5003;67994;59.334;13.528;2023-02-23T02:35:04;11.4;4.8;
78678;PMS5003;67994;59.334;13.528;2023-02-23T02:36:07;11.4;4.8;
78678;PMS5003;67994;59.334;13.528;2023-02-23T02:37:10;11.4;4.8;
78678;PMS5003;67994;59.334;13.528;2023-02-23T02:38:03;4.8;4.8;
78678;PMS5003;67994;59.334;13.528;2023-02-23T02:39:01;4.8;4.8;
78678;PMS5003;67994;59.334;13.528;2023-02-23T02:40:02;4.8;4.8;
78678;PMS5003;67994;59.334;13.528;2023-02-23T02:41:01;4.8;4.8;
78678;PMS5003;67994;59.334;13.528;2023-02-23T02:42:02;4.8;4.8;
78678;PMS5003;67994;59.334;13.528;2023-02-23T02:43:00;9.7;7.6;
78678;PMS5003;67994;59.334;13.528;2023-02-23T02:44:01;9.7;7.6;
78678;PMS5003;67994;59.334;13.528;2023-02-23T02:45:02;9.7;7.6;
78678;PMS5003;67994;59.334;13.528;2023-02-23T02:46:01;9.7;7.6;
78678;PMS5003;67994;59.334;13.528;2023-02-23T02:47:01;9.7;7.6;
78678;PMS5003;67994;59.334;13.528;2023-02-23T02:48:02;4.5;3.9;
78678;PMS5003;67994;59.334;13.528;2023-02-23T02:49:02;4.5;3.9;
78678;PMS5003;67994;59.334;13.528;2023-02-23T02:50:01;4.5;3.9;
78678;PMS5003;67994;59.334;13.528;2023-02-23T02:51:02;4.5;3.9;
78678;PMS5003;67994;59.334;13.528;2023-02-23T02:52:02;4.5;3.9;
78678;PMS5003;67994;59.334;13.528;2023-02-23T02:53:00;3.6;3.6;
78678;PMS5003;67994;59.334;13.528;2023-02-23T02:54:00;3.6;3.6;
78678;PMS5003;67994;59.334;13.528;2023-02-23T02:55:11;3.6;3.6;
78678;PMS5003;67994;59.334;13.528;2023-02-23T02:56:00;3.6;3.6;
78678;PMS5003;67994;59.334;13.528;2023-02-23T02:57:00;3.6;3.6;
78678;PMS5003;67994;59.334;13.528;2023-02-23T02:58:00;9.0;7.0;
78678;PMS5003;67994;59.334;13.528;2023-02-23T02:59:00;9.0;7.0;
78678;PMS5003;67994;59.334;13.528;2023-02-23T03:00:00;9.0;7.0;
78678;PMS5003;67994;59.334;13.528;2023-02-23T03:01:04;9.0;7.0;
78678;PMS5003;67994;59.334;13.528;2023-02-23T03:02:00;9.0;7.0;
78678;PMS5003;67994;59.334;13.528;2023-02-23T03:03:00;3.9;3.9;
78678;PMS5003;67994;59.334;13.528;2023-02-23T03:04:01;3.9;3.9;
78678;PMS5003;67994;59.334;13.528;2023-02-23T03:05:00;3.9;3.9;
78678;PMS5003;67994;59.334;13.528;2023-02-23T03:06:00;3.9;3.9;
78678;PMS5003;67994;59.334;13.528;2023-02-23T03:07:01;3.9;3.9;
78678;PMS5003;67994;59.334;13.528;2023-02-23T03:08:03;3.4;3.4;
78678;PMS5003;67994;59.334;13.528;2023-02-23T03:09:02;3.4;3.4;
78678;PMS5003;67994;59.334;13.528;2023-02-23T03:10:01;3.4;3.4;
78678;PMS5003;67994;59.334;13.528;2023-02-23T03:11:01;3.4;3.4;
78678;PMS5003;67994;59.334;13.528;2023-02-23T03:12:04;3.4;3.4;
78678;PMS5003;67994;59.334;13.528;2023-02-23T03:13:03;5.2;5.2;
78678;PMS5003;67994;59.334;13.528;2023-02-23T03:14:03;5.2;5.2;
78678;PMS5003;67994;59.334;13.528;2023-02-23T03:15:03;5.2;5.2;
78678;PMS5003;67994;59.334;13.528;2023-02-23T03:16:03;5.2;5.2;
78678;PMS5003;67994;59.334;13.528;2023-02-23T03:17:02;5.2;5.2;
78678;PMS5003;67994;59.334;13.528;2023-02-23T03:18:02;3.3;3.3;
78678;PMS5003;67994;59.334;13.528;2023-02-23T03:19:04;3.3;3.3;
78678;PMS5003;67994;59.334;13.528;2023-02-23T03:20:02;3.3;3.3;
78678;PMS5003;67994;59.334;13.528;2023-02-23T03:21:02;3.3;3.3;
78678;PMS5003;67994;59.334;13.528;2023-02-23T03:22:03;3.3;3.3;
78678;PMS5003;67994;59.334;13.528;2023-02-23T03:23:02;6.6;4.2;
78678;PMS5003;67994;59.334;13.528;2023-02-23T03:24:02;6.6;4.2;
78678;PMS5003;67994;59.334;13.528;2023-02-23T03:25:01;6.6;4.2;
78678;PMS5003;67994;59.334;13.528;2023-02-23T03:26:01;6.6;4.2;
78678;PMS5003;67994;59.334;13.528;2023-02-23T03:27:00;6.6;4.2;
78678;PMS5003;67994;59.334;13.528;2023-02-23T03:28:02;4.2;4.2;
78678;PMS5003;67994;59.334;13.528;2023-02-23T03:29:01;4.2;4.2;
78678;PMS5003;67994;59.334;13.528;2023-02-23T03:30:01;4.2;4.2;
78678;PMS5003;67994;59.334;13.528;2023-02-23T03:31:01;4.2;4.2;
78678;PMS5003;67994;59.334;13.528;2023-02-23T03:32:01;4.2;4.2;
78678;PMS5003;67994;59.334;13.528;2023-02-23T03:33:02;7.0;4.2;
78678;PMS5003;67994;59.334;13.528;2023-02-23T03:34:01;7.0;4.2;
78678;PMS5003;67994;59.334;13.528;2023-02-23T03:35:01;7.0;4.2;
78678;PMS5003;67994;59.334;13.528;2023-02-23T03:36:01;7.0;4.2;
78678;PMS5003;67994;59.334;13.528;2023-02-23T03:37:02;7.0;4.2;
78678;PMS5003;67994;59.334;13.528;2023-02-23T03:38:01;4.6;4.6;
78678;PMS5003;67994;59.334;13.528;2023-02-23T03:39:00;4.6;4.6;
78678;PMS5003;67994;59.334;13.528;2023-02-23T03:40:04;4.6;4.6;
78678;PMS5003;67994;59.334;13.528;2023-02-23T03:41:00;4.6;4.6;
78678;PMS5003;67994;59.334;13.528;2023-02-23T03:42:00;4.6;4.6;
78678;PMS5003;67994;59.334;13.528;2023-02-23T03:43:00;10.3;6.0;
78678;PMS5003;67994;59.334;13.528;2023-02-23T03:44:01;10.3;6.0;
78678;PMS5003;67994;59.334;13.528;2023-02-23T03:45:01;10.3;6.0;
78678;PMS5003;67994;59.334;13.528;2023-02-23T03:46:00;10.3;6.0;
78678;PMS5003;67994;59.334;13.528;2023-02-23T03:47:00;10.3;6.0;
78678;PMS5003;67994;59.334;13.528;2023-02-23T03:48:00;5.4;4.0;
78678;PMS5003;67994;59.334;13.528;2023-02-23T03:49:00;5.4;4.0;
78678;PMS5003;67994;59.334;13.528;2023-02-23T03:50:02;5.4;4.0;
78678;PMS5003;67994;59.334;13.528;2023-02-23T03:51:01;5.4;4.0;
78678;PMS5003;67994;59.334;13.528;2023-02-23T03:52:01;5.4;4.0;
78678;PMS5003;67994;59.334;13.528;2023-02-23T03:53:00;10.0;7.6;
78678;PMS5003;67994;59.334;13.528;2023-02-23T03:54:01;10.0;7.6;
78678;PMS5003;67994;59.334;13.528;2023-02-23T03:55:01;10.0;7.6;
78678;PMS5003;67994;59.334;13.528;2023-02-23T03:56:00;10.0;7.6;
78678;PMS5003;67994;59.334;13.528;2023-02-23T03:57:00;10.0;7.6;
78678;PMS5003;67994;59.334;13.528;2023-02-23T03:58:00;3.3;3.0;
78678;PMS5003;67994;59.334;13.528;2023-02-23T03:59:00;3.3;3.0;
78678;PMS5003;67994;59.334;13.528;2023-02-23T04:00:00;3.3;3.0;
78678;PMS5003;67994;59.334;13.528;2023-02-23T04:01:01;3.3;3.0;
78678;PMS5003;67994;59.334;13.528;2023-02-23T04:02:00;3.3;3.0;
78678;PMS5003;67994;59.334;13.528;2023-02-23T04:03:00;2.4;2.4;
78678;PMS5003;67994;59.334;13.528;2023-02-23T04:04:00;2.4;2.4;
78678;PMS5003;67994;59.334;13.528;2023-02-23T04:05:01;2.4;2.4;
78678;PMS5003;67994;59.334;13.528;2023-02-23T04:06:00;2.4;2.4;
78678;PMS5003;67994;59.334;13.528;2023-02-23T04:07:00;2.4;2.4;
78678;PMS5003;67994;59.334;13.528;2023-02-23T04:08:00;5.1;3.0;
78678;PMS5003;67994;59.334;13.528;2023-02-23T04:09:01;5.1;3.0;
78678;PMS5003;67994;59.334;13.528;2023-02-23T04:10:00;5.1;3.0;
78678;PMS5003;67994;59.334;13.528;2023-02-23T04:11:01;5.1;3.0;
78678;PMS5003;67994;59.334;13.528;2023-02-23T04:12:01;5.1;3.0;
78678;PMS5003;67994;59.334;13.528;2023-02-23T04:13:01;6.3;4.6;
78678;PMS5003;67994;59.334;13.528;2023-02-23T04:14:01;6.3;4.6;
78678;PMS5003;67994;59.334;13.528;2023-02-23T04:15:00;6.3;4.6;
78678;PMS5003;67994;59.334;13.528;2023-02-23T04:16:01;6.3;4.6;
78678;PMS5003;67994;59.334;13.528;2023-02-23T04:17:00;6.3;4.6;
78678;PMS5003;67994;59.334;13.528;2023-02-23T04:18:02;5.8;3.0;
78678;PMS5003;67994;59.334;13.528;2023-02-23T04:19:00;5.8;3.0;
78678;PMS5003;67994;59.334;13.528;2023-02-23T04:20:00;5.8;3.0;
78678;PMS5003;67994;59.334;13.528;2023-02-23T04:21:00;5.8;3.0;
78678;PMS5003;67994;59.334;13.528;2023-02-23T04:22:00;5.8;3.0;
78678;PMS5003;67994;59.334;13.528;2023-02-23T04:23:00;6.6;4.8;
78678;PMS5003;67994;59.334;13.528;2023-02-23T04:24:00;6.6;4.8;
78678;PMS5003;67994;59.334;13.528;2023-02-23T04:25:00;6.6;4.8;
78678;PMS5003;67994;59.334;13.528;2023-02-23T04:26:00;6.6;4.8;
78678;PMS5003;67994;59.334;13.528;2023-02-23T04:27:00;6.6;4.8;
78678;PMS5003;67994;59.334;13.528;2023-02-23T04:28:00;6.3;4.0;
78678;PMS5003;67994;59.334;13.528;2023-02-23T04:29:00;6.3;4.0;
78678;PMS5003;67994;59.334;13.528;2023-02-23T04:30:00;6.3;4.0;
78678;PMS5003;67994;59.334;13.528;2023-02-23T04:31:00;6.3;4.0;
78678;PMS5003;67994;59.334;13.528;2023-02-23T04:32:00;6.3;4.0;
78678;PMS5003;67994;59.334;13.528;2023-02-23T04:33:00;4.0;4.0;
78678;PMS5003;67994;59.334;13.528;2023-02-23T04:34:00;4.0;4.0;
78678;PMS5003;67994;59.334;13.528;2023-02-23T04:35:00;4.0;4.0;
78678;PMS5003;67994;59.334;13.528;2023-02-23T04:36:00;4.0;4.0;
78678;PMS5003;67994;59.334;13.528;2023-02-23T04:37:00;4.0;4.0;
78678;PMS5003;67994;59.334;13.528;2023-02-23T04:38:00;7.0;4.0;
78678;PMS5003;67994;59.334;13.528;2023-02-23T04:39:00;7.0;4.0;
78678;PMS5003;67994;59.334;13.528;2023-02-23T04:40:00;7.0;4.0;
78678;PMS5003;67994;59.334;13.528;2023-02-23T04:41:00;7.0;4.0;
78678;PMS5003;67994;59.334;13.528;2023-02-23T04:42:00;7.0;4.0;
78678;PMS5003;67994;59.334;13.528;2023-02-23T04:43:00;5.4;5.4;
78678;PMS5003;67994;59.334;13.528;2023-02-23T04:44:00;5.4;5.4;
78678;PMS5003;67994;59.334;13.528;2023-02-23T04:45:00;5.4;5.4;
78678;PMS5003;67994;59.334;13.528;2023-02-23T04:46:00;5.4;5.4;
78678;PMS5003;67994;59.334;13.528;2023-02-23T04:47:00;5.4;5.4;
78678;PMS5003;67994;59.334;13.528;2023-02-23T04:48:00;7.0;6.7;
78678;PMS5003;67994;59.334;13.528;2023-02-23T04:49:00;7.0;6.7;
78678;PMS5003;67994;59.334;13.528;2023-02-23T04:50:00;7.0;6.7;
78678;PMS5003;67994;59.334;13.528;2023-02-23T04:51:00;7.0;6.7;
78678;PMS5003;67994;59.334;13.528;2023-02-23T04:52:00;7.0;6.7;
78678;PMS5003;67994;59.334;13.528;2023-02-23T04:53:00;2.2;2.2;
78678;PMS5003;67994;59.334;13.528;2023-02-23T04:54:00;2.2;2.2;
78678;PMS5003;67994;59.334;13.528;2023-02-23T04:55:00;2.2;2.2;
78678;PMS5003;67994;59.334;13.528;2023-02-23T04:56:00;2.2;2.2;
78678;PMS5003;67994;59.334;13.528;2023-02-23T04:57:00;2.2;2.2;
78678;PMS5003;67994;59.334;13.528;2023-02-23T04:58:00;4.3;3.4;
78678;PMS5003;67994;59.334;13.528;2023-02-23T04:59:00;4.3;3.4;
78678;PMS5003;67994;59.334;13.528;2023-02-23T05:00:00;4.3;3.4;
78678;PMS5003;67994;59.334;13.528;2023-02-23T05:01:04;4.3;3.4;
78678;PMS5003;67994;59.334;13.528;2023-02-23T05:02:00;4.3;3.4;
78678;PMS5003;67994;59.334;13.528;2023-02-23T05:03:00;6.0;4.0;
78678;PMS5003;67994;59.334;13.528;2023-02-23T05:04:00;6.0;4.0;
78678;PMS5003;67994;59.334;13.528;2023-02-23T05:05:00;6.0;4.0;
78678;PMS5003;67994;59.334;13.528;2023-02-23T05:06:00;6.0;4.0;
78678;PMS5003;67994;59.334;13.528;2023-02-23T05:07:00;6.0;4.0;
78678;PMS5003;67994;59.334;13.528;2023-02-23T05:08:00;4.2;3.0;
78678;PMS5003;67994;59.334;13.528;2023-02-23T05:09:00;4.2;3.0;
78678;PMS5003;67994;59.334;13.528;2023-02-23T05:10:00;4.2;3.0;
78678;PMS5003;67994;59.334;13.528;2023-02-23T05:11:00;4.2;3.0;
78678;PMS5003;67994;59.334;13.528;2023-02-23T05:12:00;4.2;3.0;
78678;PMS5003;67994;59.334;13.528;2023-02-23T05:13:00;7.0;3.0;
78678;PMS5003;67994;59.334;13.528;2023-02-23T05:14:00;7.0;3.0;
78678;PMS5003;67994;59.334;13.528;2023-02-23T05:15:00;7.0;3.0;
78678;PMS5003;67994;59.334;13.528;2023-02-23T05:16:00;7.0;3.0;
78678;PMS5003;67994;59.334;13.528;2023-02-23T05:17:00;7.0;3.0;
78678;PMS5003;67994;59.334;13.528;2023-02-23T05:18:00;3.4;3.4;
78678;PMS5003;67994;59.334;13.528;2023-02-23T05:19:00;3.4;3.4;
78678;PMS5003;67994;59.334;13.528;2023-02-23T05:20:00;3.4;3.4;
78678;PMS5003;67994;59.334;13.528;2023-02-23T05:21:00;3.4;3.4;
78678;PMS5003;67994;59.334;13.528;2023-02-23T05:22:00;3.4;3.4;
78678;PMS5003;67994;59.334;13.528;2023-02-23T05:23:00;4.6;3.7;
78678;PMS5003;67994;59.334;13.528;2023-02-23T05:24:00;4.6;3.7;
78678;PMS5003;67994;59.334;13.528;2023-02-23T05:25:00;4.6;3.7;
78678;PMS5003;67994;59.334;13.528;2023-02-23T05:26:00;4.6;3.7;
78678;PMS5003;67994;59.334;13.528;2023-02-23T05:27:00;4.6;3.7;
78678;PMS5003;67994;59.334;13.528;2023-02-23T05:28:00;4.0;4.0;
78678;PMS5003;67994;59.334;13.528;2023-02-23T05:29:00;4.0;4.0;
78678;PMS5003;67994;59.334;13.528;2023-02-23T05:30:00;4.0;4.0;
78678;PMS5003;67994;59.334;13.528;2023-02-23T05:31:00;4.0;4.0;
78678;PMS5003;67994;59.334;13.528;2023-02-23T05:32:00;4.0;4.0;
78678;PMS5003;67994;59.334;13.528;2023-02-23T05:33:00;6.0;4.0;
78678;PMS5003;67994;59.334;13.528;2023-02-23T05:34:00;6.0;4.0;
78678;PMS5003;67994;59.334;13.528;2023-02-23T05:35:00;6.0;4.0;
78678;PMS5003;67994;59.334;13.528;2023-02-23T05:36:03;6.0;4.0;
78678;PMS5003;67994;59.334;13.528;2023-02-23T05:37:00;6.0;4.0;
78678;PMS5003;67994;59.334;13.528;2023-02-23T05:38:00;3.3;3.0;
78678;PMS5003;67994;59.334;13.528;2023-02-23T05:39:00;3.3;3.0;
78678;PMS5003;67994;59.334;13.528;2023-02-23T05:40:00;3.3;3.0;
78678;PMS5003;67994;59.334;13.528;2023-02-23T05:41:03;3.3;3.0;
78678;PMS5003;67994;59.334;13.528;2023-02-23T05:42:00;3.3;3.0;
78678;PMS5003;67994;59.334;13.528;2023-02-23T05:43:00;4.0;4.0;
78678;PMS5003;67994;59.334;13.528;2023-02-23T05:44:00;4.0;4.0;
78678;PMS5003;67994;59.334;13.528;2023-02-23T05:45:00;4.0;4.0;
78678;PMS5003;67994;59.334;13.528;2023-02-23T05:46:00;4.0;4.0;
78678;PMS5003;67994;59.334;13.528;2023-02-23T05:47:00;4.0;4.0;
78678;PMS5003;67994;59.334;13.528;2023-02-23T05:48:00;4.0;4.0;
78678;PMS5003;67994;59.334;13.528;2023-02-23T05:49:00;4.0;4.0;
78678;PMS5003;67994;59.334;13.528;2023-02-23T05:50:00;4.0;4.0;
78678;PMS5003;67994;59.334;13.528;2023-02-23T05:51:00;4.0;4.0;
78678;PMS5003;67994;59.334;13.528;2023-02-23T05:52:00;4.0;4.0;
78678;PMS5003;67994;59.334;13.528;2023-02-23T05:53:00;3.4;3.0;
78678;PMS5003;67994;59.334;13.528;2023-02-23T05:54:00;3.4;3.0;
78678;PMS5003;67994;59.334;13.528;2023-02-23T05:55:00;3.4;3.0;
78678;PMS5003;67994;59.334;13.528;2023-02-23T05:56:00;3.4;3.0;
78678;PMS5003;67994;59.334;13.528;2023-02-23T05:57:00;3.4;3.0;
78678;PMS5003;67994;59.334;13.528;2023-02-23T05:58:00;3.4;3.4;
78678;PMS5003;67994;59.334;13.528;2023-02-23T05:59:00;3.4;3.4;
78678;PMS5003;67994;59.334;13.528;2023-02-23T06:00:00;3.4;3.4;
78678;PMS5003;67994;59.334;13.528;2023-02-23T06:01:01;3.4;3.4;
78678;PMS5003;67994;59.334;13.528;2023-02-23T06:02:00;3.4;3.4;
78678;PMS5003;67994;59.334;13.528;2023-02-23T06:03:00;6.7;4.0;
78678;PMS5003;67994;59.334;13.528;2023-02-23T06:04:00;6.7;4.0;
78678;PMS5003;67994;59.334;13.528;2023-02-23T06:05:00;6.7;4.0;
78678;PMS5003;67994;59.334;13.528;2023-02-23T06:06:00;6.7;4.0;
78678;PMS5003;67994;59.334;13.528;2023-02-23T06:07:00;6.7;4.0;
78678;PMS5003;67994;59.334;13.528;2023-02-23T06:08:00;6.6;4.0;
78678;PMS5003;67994;59.334;13.528;2023-02-23T06:09:00;6.6;4.0;
78678;PMS5003;67994;59.334;13.528;2023-02-23T06:10:00;6.6;4.0;
78678;PMS5003;67994;59.334;13.528;2023-02-23T06:11:00;6.6;4.0;
78678;PMS5003;67994;59.334;13.528;2023-02-23T06:12:00;6.6;4.0;
78678;PMS5003;67994;59.334;13.528;2023-02-23T06:13:00;4.6;3.3;
78678;PMS5003;67994;59.334;13.528;2023-02-23T06:14:00;4.6;3.3;
78678;PMS5003;67994;59.334;13.528;2023-02-23T06:15:00;4.6;3.3;
78678;PMS5003;67994;59.334;13.528;2023-02-23T06:16:00;4.6;3.3;
78678;PMS5003;67994;59.334;13.528;2023-02-23T06:17:00;4.6;3.3;
78678;PMS5003;67994;59.334;13.528;2023-02-23T06:18:00;3.4;3.4;
78678;PMS5003;67994;59.334;13.528;2023-02-23T06:19:00;3.4;3.4;
78678;PMS5003;67994;59.334;13.528;2023-02-23T06:20:00;3.4;3.4;
78678;PMS5003;67994;59.334;13.528;2023-02-23T06:21:00;3.4;3.4;
78678;PMS5003;67994;59.334;13.528;2023-02-23T06:22:00;3.4;3.4;
78678;PMS5003;67994;59.334;13.528;2023-02-23T06:23:00;1.0;1.0;
78678;PMS5003;67994;59.334;13.528;2023-02-23T06:24:00;1.0;1.0;